Time;durP1;ratioP1;P1;durP2;ratioP2;P2;SDS_P1;SDS_P2;PMS_P1;PMS_P2;Temp;Humidity;BMP_temperature;BMP_pressure;BME280_temperature;BME280_humidity;BME280_pressure;Samples;Min_cycle;Max_cycle;Signal;HPM_P1;HPM_P2
2022/04/11 00:00:06;;;;;;;6.63;4.20;;;;;;;;;;507645;29;1494;-85
2022/04/11 00:00:21;;;;;;;5.93;4.28;;;;;;;;;;513606;28;1402;-85
2022/04/11 00:00:38;;;;;;;6.53;4.25;;;;;;;;;;513515;28;1456;-84
2022/04/11 00:00:53;;;;;;;6.88;4.20;;;;;;;;;;511698;28;1456;-85
2022/04/11 00:01:08;;;;;;;6.83;4.20;;;;;;;;;;515605;28;1516;-85
2022/04/11 00:01:24;;;;;;;6.80;4.20;;;;;;;;;;514406;28;1424;-85
2022/04/11 00:01:39;;;;;;;6.47;4.10;;;;;;;;;;513521;28;1555;-85
2022/04/11 00:01:55;;;;;;;6.50;4.10;;;;;;;;;;514120;28;1481;-85
2022/04/11 00:02:10;;;;;;;6.20;4.33;;;;;;;;;;513633;28;1611;-86
2022/04/11 00:02:25;;;;;;;6.10;4.20;;;;;;;;;;515616;28;1468;-86
2022/04/11 00:02:41;;;;;;;5.90;4.05;;;;;;;;;;514266;28;1538;-84
2022/04/11 00:02:56;;;;;;;5.30;4.07;;;;;;;;;;515279;28;1496;-86
2022/04/11 00:03:12;;;;;;;4.87;3.97;;;;;;;;;;515305;28;1520;-85
2022/04/11 00:03:29;;;;;;;5.85;4.05;;;;;;;;;;514893;28;1462;-86
2022/04/11 00:03:45;;;;;;;5.43;3.88;;;;;;;;;;513772;28;1568;-85
2022/04/11 00:04:00;;;;;;;5.80;4.10;;;;;;;;;;513680;28;1556;-86
2022/04/11 00:04:15;;;;;;;6.00;4.07;;;;;;;;;;512331;28;1581;-85
2022/04/11 00:04:31;;;;;;;5.13;3.90;;;;;;;;;;514282;28;1638;-85
2022/04/11 00:04:46;;;;;;;4.73;3.90;;;;;;;;;;513725;28;1720;-85
2022/04/11 00:05:02;;;;;;;5.22;4.07;;;;;;;;;;515573;28;1560;-85
2022/04/11 00:05:18;;;;;;;6.30;4.00;;;;;;;;;;515583;28;1756;-86
2022/04/11 00:05:34;;;;;;;7.30;3.83;;;;;;;;;;515062;28;1468;-85
2022/04/11 00:05:49;;;;;;;6.70;3.90;;;;;;;;;;514044;28;1422;-85
2022/04/11 00:06:04;;;;;;;4.95;3.83;;;;;;;;;;513918;28;1632;-85
2022/04/11 00:06:20;;;;;;;4.73;3.77;;;;;;;;;;512278;28;1661;-85
2022/04/11 00:06:35;;;;;;;6.78;4.10;;;;;;;;;;511364;28;1651;-85
2022/04/11 00:06:50;;;;;;;8.23;4.33;;;;;;;;;;509823;29;1793;-86
2022/04/11 00:07:06;;;;;;;6.90;4.10;;;;;;;;;;507837;29;1518;-85
2022/04/11 00:07:21;;;;;;;6.47;4.05;;;;;;;;;;509768;28;1446;-83
2022/04/11 00:07:37;;;;;;;6.10;4.00;;;;;;;;;;509505;28;1549;-85
2022/04/11 00:07:52;;;;;;;4.97;3.90;;;;;;;;;;511447;28;1427;-84
2022/04/11 00:08:07;;;;;;;5.03;3.90;;;;;;;;;;509634;28;1485;-85
2022/04/11 00:08:23;;;;;;;6.00;3.80;;;;;;;;;;510417;29;1562;-85
2022/04/11 00:08:38;;;;;;;6.22;3.85;;;;;;;;;;511640;28;1454;-85
2022/04/11 00:08:54;;;;;;;6.07;4.07;;;;;;;;;;513964;28;1400;-85
2022/04/11 00:09:09;;;;;;;6.22;4.25;;;;;;;;;;512085;28;1666;-85
2022/04/11 00:09:24;;;;;;;6.20;4.10;;;;;;;;;;513574;28;1786;-85
2022/04/11 00:09:40;;;;;;;6.33;3.80;;;;;;;;;;511443;28;1398;-85
2022/04/11 00:09:55;;;;;;;5.72;3.72;;;;;;;;;;511247;28;1485;-85
2022/04/11 00:10:11;;;;;;;5.87;3.80;;;;;;;;;;509418;29;1536;-85
2022/04/11 00:10:26;;;;;;;6.90;3.88;;;;;;;;;;509255;29;1615;-86
2022/04/11 00:10:41;;;;;;;6.60;4.00;;;;;;;;;;511630;28;1386;-85
2022/04/11 00:10:57;;;;;;;6.27;4.03;;;;;;;;;;509726;29;1555;-85
2022/04/11 00:11:12;;;;;;;6.25;3.67;;;;;;;;;;509500;29;1606;-85
2022/04/11 00:11:28;;;;;;;5.33;3.70;;;;;;;;;;510726;28;1594;-85
2022/04/11 00:11:43;;;;;;;4.70;3.80;;;;;;;;;;512604;28;1575;-86
2022/04/11 00:11:58;;;;;;;5.77;3.60;;;;;;;;;;511782;28;2610;-85
2022/04/11 00:12:14;;;;;;;6.17;3.80;;;;;;;;;;509864;29;1606;-85
2022/04/11 00:12:34;;;;;;;6.03;3.90;;;;;;;;;;509525;29;2192;-85
2022/04/11 00:12:49;;;;;;;5.40;3.90;;;;;;;;;;513894;28;1573;-85
2022/04/11 00:13:06;;;;;;;5.83;3.80;;;;;;;;;;513313;28;1469;-84
2022/04/11 00:13:22;;;;;;;6.78;3.90;;;;;;;;;;513405;28;1446;-85
2022/04/11 00:13:37;;;;;;;7.27;3.73;;;;;;;;;;511302;28;1532;-85
2022/04/11 00:13:53;;;;;;;8.13;3.83;;;;;;;;;;511069;28;1343;-85
2022/04/11 00:14:08;;;;;;;6.40;3.90;;;;;;;;;;513543;28;2039;-85
2022/04/11 00:14:24;;;;;;;5.80;4.00;;;;;;;;;;511719;28;1480;-84
2022/04/11 00:14:40;;;;;;;6.43;3.92;;;;;;;;;;511317;28;1748;-85
2022/04/11 00:14:58;;;;;;;6.32;3.83;;;;;;;;;;510405;28;1927;-85
2022/04/11 00:15:13;;;;;;;5.03;3.80;;;;;;;;;;515467;28;1548;-85
2022/04/11 00:15:28;;;;;;;5.23;3.83;;;;;;;;;;514122;28;1635;-85
2022/04/11 00:15:44;;;;;;;5.57;4.00;;;;;;;;;;513358;28;1579;-85
2022/04/11 00:15:59;;;;;;;5.88;4.20;;;;;;;;;;512977;28;1556;-85
2022/04/11 00:16:14;;;;;;;6.00;4.00;;;;;;;;;;513154;28;1457;-85
2022/04/11 00:16:30;;;;;;;5.95;3.65;;;;;;;;;;511486;28;1769;-85
2022/04/11 00:16:46;;;;;;;5.90;3.65;;;;;;;;;;513681;28;1520;-85
2022/04/11 00:17:02;;;;;;;6.27;3.80;;;;;;;;;;513568;28;1656;-85
2022/04/11 00:17:18;;;;;;;5.82;3.88;;;;;;;;;;514940;28;1560;-85
2022/04/11 00:17:34;;;;;;;5.17;3.80;;;;;;;;;;513884;28;1538;-86
2022/04/11 00:17:50;;;;;;;6.63;3.88;;;;;;;;;;511003;28;1595;-85
2022/04/11 00:18:06;;;;;;;7.77;3.90;;;;;;;;;;511932;28;1501;-85
2022/04/11 00:18:21;;;;;;;7.55;4.05;;;;;;;;;;510203;29;1590;-85
2022/04/11 00:18:37;;;;;;;6.20;3.85;;;;;;;;;;510711;28;1539;-85
2022/04/11 00:18:52;;;;;;;5.67;3.80;;;;;;;;;;512018;28;1583;-85
2022/04/11 00:19:10;;;;;;;5.33;3.97;;;;;;;;;;512088;28;1497;-85
2022/04/11 00:19:26;;;;;;;6.30;3.95;;;;;;;;;;511548;28;1421;-85
2022/04/11 00:19:41;;;;;;;6.77;4.00;;;;;;;;;;511523;28;1539;-85
2022/04/11 00:19:56;;;;;;;7.67;3.93;;;;;;;;;;513285;28;1379;-85
2022/04/11 00:20:12;;;;;;;8.45;3.78;;;;;;;;;;514458;28;1504;-85
2022/04/11 00:20:28;;;;;;;6.60;3.80;;;;;;;;;;516012;28;1416;-85
2022/04/11 00:20:43;;;;;;;5.55;3.80;;;;;;;;;;514574;28;1622;-85
2022/04/11 00:20:59;;;;;;;5.97;3.78;;;;;;;;;;515038;28;1434;-85
2022/04/11 00:21:14;;;;;;;5.57;3.90;;;;;;;;;;513896;28;1616;-85
2022/04/11 00:21:30;;;;;;;5.73;3.80;;;;;;;;;;511589;28;1481;-85
2022/04/11 00:21:45;;;;;;;5.63;3.80;;;;;;;;;;510439;28;1739;-86
2022/04/11 00:22:02;;;;;;;5.17;3.90;;;;;;;;;;511416;28;1547;-85
2022/04/11 00:22:17;;;;;;;5.55;3.90;;;;;;;;;;511139;28;1430;-85
2022/04/11 00:22:36;;;;;;;5.30;3.83;;;;;;;;;;513326;28;1641;-85
2022/04/11 00:22:52;;;;;;;6.07;3.80;;;;;;;;;;512103;28;1524;-85
2022/04/11 00:23:07;;;;;;;7.90;3.80;;;;;;;;;;511083;28;1458;-85
2022/04/11 00:23:23;;;;;;;6.65;3.95;;;;;;;;;;510996;28;1453;-85
2022/04/11 00:23:38;;;;;;;6.00;3.90;;;;;;;;;;512770;28;1371;-85
2022/04/11 00:23:54;;;;;;;7.10;4.00;;;;;;;;;;513157;28;1685;-85
2022/04/11 00:24:09;;;;;;;7.37;4.17;;;;;;;;;;515824;28;1512;-85
2022/04/11 00:24:24;;;;;;;6.82;4.10;;;;;;;;;;513377;28;1489;-85
2022/04/11 00:24:40;;;;;;;6.40;4.10;;;;;;;;;;513366;28;1585;-85
2022/04/11 00:24:55;;;;;;;5.60;3.90;;;;;;;;;;512630;28;1646;-85
2022/04/11 00:25:11;;;;;;;5.90;4.13;;;;;;;;;;513436;28;1432;-85
2022/04/11 00:25:26;;;;;;;6.37;4.50;;;;;;;;;;512673;28;1477;-85
2022/04/11 00:25:41;;;;;;;6.00;4.00;;;;;;;;;;513186;28;1377;-85
2022/04/11 00:25:57;;;;;;;5.27;3.80;;;;;;;;;;513340;28;1413;-85
2022/04/11 00:26:12;;;;;;;5.65;4.00;;;;;;;;;;516751;28;1558;-85
2022/04/11 00:26:28;;;;;;;5.57;4.00;;;;;;;;;;515530;28;1538;-85
2022/04/11 00:26:43;;;;;;;5.45;4.18;;;;;;;;;;511765;28;1501;-85
2022/04/11 00:26:58;;;;;;;6.40;4.23;;;;;;;;;;511523;28;1470;-85
2022/04/11 00:27:14;;;;;;;6.03;4.00;;;;;;;;;;511689;28;1426;-85
2022/04/11 00:27:30;;;;;;;5.83;4.07;;;;;;;;;;511573;28;1579;-84
2022/04/11 00:27:46;;;;;;;6.07;4.25;;;;;;;;;;511302;28;1446;-85
2022/04/11 00:28:01;;;;;;;6.07;4.30;;;;;;;;;;509516;28;1610;-85
2022/04/11 00:28:17;;;;;;;6.57;4.30;;;;;;;;;;509990;28;1659;-85
2022/04/11 00:28:33;;;;;;;5.78;4.22;;;;;;;;;;512148;28;1568;-85
2022/04/11 00:28:48;;;;;;;5.10;4.20;;;;;;;;;;513720;28;1446;-85
2022/04/11 00:29:04;;;;;;;5.60;4.17;;;;;;;;;;511504;28;1704;-85
2022/04/11 00:29:19;;;;;;;6.05;4.10;;;;;;;;;;511190;28;1503;-85
2022/04/11 00:29:34;;;;;;;6.20;4.13;;;;;;;;;;511369;28;1569;-86
2022/04/11 00:29:50;;;;;;;7.17;4.27;;;;;;;;;;510675;29;1443;-85
2022/04/11 00:30:05;;;;;;;8.70;4.63;;;;;;;;;;510421;28;1531;-85
2022/04/11 00:30:21;;;;;;;7.00;4.47;;;;;;;;;;512114;28;1446;-85
2022/04/11 00:30:36;;;;;;;7.03;4.20;;;;;;;;;;512127;28;1687;-86
2022/04/11 00:30:52;;;;;;;7.53;4.40;;;;;;;;;;511882;28;1489;-85
2022/04/11 00:31:07;;;;;;;5.83;4.20;;;;;;;;;;511252;28;1842;-85
2022/04/11 00:31:24;;;;;;;5.82;4.00;;;;;;;;;;508759;29;1442;-84
2022/04/11 00:31:39;;;;;;;6.40;4.25;;;;;;;;;;510549;29;1469;-85
2022/04/11 00:31:55;;;;;;;6.13;4.25;;;;;;;;;;508118;29;1410;-85
2022/04/11 00:32:10;;;;;;;6.23;4.20;;;;;;;;;;512367;28;1453;-85
2022/04/11 00:32:26;;;;;;;5.80;4.22;;;;;;;;;;512868;28;1473;-85
2022/04/11 00:32:44;;;;;;;5.33;3.93;;;;;;;;;;508026;29;1814;-85
2022/04/11 00:32:59;;;;;;;5.32;3.80;;;;;;;;;;509568;29;1849;-85
2022/04/11 00:33:14;;;;;;;5.47;4.00;;;;;;;;;;511826;28;1447;-85
2022/04/11 00:33:30;;;;;;;6.05;4.20;;;;;;;;;;512316;28;1718;-85
2022/04/11 00:33:45;;;;;;;6.67;4.30;;;;;;;;;;514380;28;1429;-84
2022/04/11 00:34:00;;;;;;;7.43;4.13;;;;;;;;;;515167;28;1571;-85
2022/04/11 00:34:16;;;;;;;7.97;4.10;;;;;;;;;;514214;28;1556;-85
2022/04/11 00:34:31;;;;;;;7.97;4.23;;;;;;;;;;514053;28;1599;-85
2022/04/11 00:34:46;;;;;;;7.07;4.30;;;;;;;;;;516019;28;1476;-86
2022/04/11 00:35:03;;;;;;;5.83;4.20;;;;;;;;;;513417;28;1918;-85
2022/04/11 00:35:19;;;;;;;6.22;4.30;;;;;;;;;;513474;28;1477;-85
2022/04/11 00:35:34;;;;;;;6.07;4.30;;;;;;;;;;513451;28;1428;-85
2022/04/11 00:35:50;;;;;;;6.07;4.20;;;;;;;;;;515338;28;1523;-85
2022/04/11 00:36:05;;;;;;;6.47;4.00;;;;;;;;;;513953;28;1573;-86
2022/04/11 00:36:20;;;;;;;5.88;3.95;;;;;;;;;;514096;28;1555;-85
2022/04/11 00:36:36;;;;;;;6.40;4.00;;;;;;;;;;513810;28;1794;-85
2022/04/11 00:36:51;;;;;;;6.13;4.13;;;;;;;;;;512152;28;1616;-86
2022/04/11 00:37:07;;;;;;;5.78;4.28;;;;;;;;;;511517;28;1462;-85
2022/04/11 00:37:22;;;;;;;7.33;4.30;;;;;;;;;;513304;28;1833;-86
2022/04/11 00:37:38;;;;;;;7.45;4.38;;;;;;;;;;511255;28;1680;-85
2022/04/11 00:37:53;;;;;;;7.10;4.30;;;;;;;;;;513705;28;1429;-85
2022/04/11 00:38:09;;;;;;;6.43;4.10;;;;;;;;;;515781;28;1428;-86
2022/04/11 00:38:24;;;;;;;5.63;4.10;;;;;;;;;;515548;28;1424;-85
2022/04/11 00:38:40;;;;;;;5.78;4.13;;;;;;;;;;512525;28;1496;-85
2022/04/11 00:38:55;;;;;;;5.67;4.20;;;;;;;;;;514067;28;1426;-85
2022/04/11 00:39:10;;;;;;;5.80;4.18;;;;;;;;;;512439;28;1612;-85
2022/04/11 00:39:26;;;;;;;6.63;4.07;;;;;;;;;;511997;28;1486;-86
2022/04/11 00:39:41;;;;;;;6.37;4.10;;;;;;;;;;510085;29;1753;-85
2022/04/11 00:39:56;;;;;;;5.82;4.00;;;;;;;;;;511290;28;1416;-85
2022/04/11 00:40:13;;;;;;;5.90;4.00;;;;;;;;;;510374;28;1783;-86
2022/04/11 00:40:28;;;;;;;5.22;4.07;;;;;;;;;;511142;28;1505;-85
2022/04/11 00:40:44;;;;;;;4.90;4.00;;;;;;;;;;512013;28;1468;-86
2022/04/11 00:40:59;;;;;;;5.28;4.07;;;;;;;;;;511123;28;1500;-85
2022/04/11 00:41:14;;;;;;;4.90;3.80;;;;;;;;;;513734;28;1434;-85
2022/04/11 00:41:30;;;;;;;4.73;3.87;;;;;;;;;;511530;28;1587;-85
2022/04/11 00:41:45;;;;;;;4.95;4.10;;;;;;;;;;509690;29;1458;-86
2022/04/11 00:42:11;;;;;;;5.97;4.20;;;;;;;;;;511111;28;1429;-84
2022/04/11 00:42:27;;;;;;;6.57;4.35;;;;;;;;;;511005;28;1672;-85
2022/04/11 00:42:43;;;;;;;6.30;4.30;;;;;;;;;;509209;29;1603;-85
2022/04/11 00:42:58;;;;;;;5.10;4.00;;;;;;;;;;510182;29;1474;-85
2022/04/11 00:43:40;;;;;;;5.97;3.97;;;;;;;;;;510710;28;1446;-85
2022/04/11 00:43:55;;;;;;;5.95;4.00;;;;;;;;;;508926;29;1377;-85
2022/04/11 00:44:10;;;;;;;5.90;4.00;;;;;;;;;;508576;29;1535;-85
2022/04/11 00:44:26;;;;;;;5.90;3.90;;;;;;;;;;509382;29;1463;-85
2022/04/11 00:44:41;;;;;;;5.53;3.80;;;;;;;;;;510962;28;1598;-85
2022/04/11 00:44:59;;;;;;;6.13;3.95;;;;;;;;;;511397;28;1470;-85
2022/04/11 00:45:15;;;;;;;6.60;4.05;;;;;;;;;;509643;29;1483;-85
2022/04/11 00:45:31;;;;;;;6.28;4.07;;;;;;;;;;510109;29;1505;-84
2022/04/11 00:45:46;;;;;;;5.63;4.00;;;;;;;;;;510562;29;1460;-85
2022/04/11 00:46:03;;;;;;;5.05;3.90;;;;;;;;;;508941;29;1506;-85
2022/04/11 00:46:18;;;;;;;5.50;3.95;;;;;;;;;;510297;28;1503;-85
2022/04/11 00:46:34;;;;;;;6.23;4.07;;;;;;;;;;513653;28;1614;-85
2022/04/11 00:46:49;;;;;;;6.65;4.20;;;;;;;;;;513944;28;1502;-85
2022/04/11 00:47:05;;;;;;;5.90;4.10;;;;;;;;;;516527;28;1615;-85
2022/04/11 00:47:20;;;;;;;5.20;3.80;;;;;;;;;;516030;28;1424;-85
2022/04/11 00:47:35;;;;;;;6.07;4.00;;;;;;;;;;515185;28;1591;-85
2022/04/11 00:47:51;;;;;;;6.50;4.00;;;;;;;;;;513355;28;1524;-86
2022/04/11 00:48:06;;;;;;;5.67;3.90;;;;;;;;;;511352;28;1679;-85
2022/04/11 00:48:22;;;;;;;5.80;4.03;;;;;;;;;;513337;28;1501;-85
2022/04/11 00:48:39;;;;;;;5.67;3.80;;;;;;;;;;512943;28;1585;-85
2022/04/11 00:48:55;;;;;;;5.93;3.95;;;;;;;;;;513180;28;1482;-85
2022/04/11 00:49:10;;;;;;;5.97;4.07;;;;;;;;;;512074;28;1467;-86
2022/04/11 00:49:26;;;;;;;5.45;3.92;;;;;;;;;;511486;28;1522;-85
2022/04/11 00:49:41;;;;;;;6.50;4.07;;;;;;;;;;513714;28;1437;-86
2022/04/11 00:50:04;;;;;;;6.87;4.10;;;;;;;;;;513555;28;1570;-84
2022/04/11 00:50:21;;;;;;;5.72;4.00;;;;;;;;;;513490;28;1374;-85
2022/04/11 00:50:36;;;;;;;5.35;4.05;;;;;;;;;;512965;28;1678;-86
2022/04/11 00:50:55;;;;;;;5.25;3.95;;;;;;;;;;513941;28;1426;-85
2022/04/11 00:51:20;;;;;;;6.03;3.90;;;;;;;;;;512999;28;1461;-85
2022/04/11 00:51:36;;;;;;;5.50;3.83;;;;;;;;;;511045;28;1613;-85
2022/04/11 00:51:52;;;;;;;5.07;3.80;;;;;;;;;;511447;28;1439;-85
2022/04/11 00:52:08;;;;;;;4.70;3.90;;;;;;;;;;511683;28;1572;-85
2022/04/11 00:52:24;;;;;;;5.53;3.85;;;;;;;;;;511685;28;1414;-85
2022/04/11 00:52:44;;;;;;;5.55;3.65;;;;;;;;;;513637;28;1926;-86
2022/04/11 00:53:00;;;;;;;6.15;3.90;;;;;;;;;;514390;28;1732;-85
2022/04/11 00:53:15;;;;;;;6.18;4.20;;;;;;;;;;517753;28;1688;-85
2022/04/11 00:53:32;;;;;;;5.57;4.00;;;;;;;;;;514037;28;1433;-86
2022/04/11 00:53:51;;;;;;;5.32;3.90;;;;;;;;;;514148;28;1784;-85
2022/04/11 00:54:07;;;;;;;6.00;3.83;;;;;;;;;;514260;28;1470;-86
2022/04/11 00:54:25;;;;;;;7.72;4.07;;;;;;;;;;509164;29;1565;-85
2022/04/11 00:54:41;;;;;;;7.10;4.20;;;;;;;;;;513419;28;1445;-84
2022/04/11 00:54:58;;;;;;;5.20;4.00;;;;;;;;;;513288;28;1914;-85
2022/04/11 00:55:17;;;;;;;5.72;4.03;;;;;;;;;;513531;28;1559;-85
2022/04/11 00:55:32;;;;;;;6.00;4.13;;;;;;;;;;515556;28;1661;-85
2022/04/11 00:55:48;;;;;;;5.97;4.18;;;;;;;;;;514303;28;1500;-85
2022/04/11 00:56:04;;;;;;;5.97;4.23;;;;;;;;;;512225;28;1631;-85
2022/04/11 00:56:19;;;;;;;5.78;4.20;;;;;;;;;;513371;28;1409;-85
2022/04/11 00:56:35;;;;;;;5.35;3.92;;;;;;;;;;513915;28;1596;-85
2022/04/11 00:56:53;;;;;;;4.95;3.92;;;;;;;;;;514022;28;1527;-85
2022/04/11 00:57:09;;;;;;;4.75;3.95;;;;;;;;;;514452;28;1722;-85
2022/04/11 00:57:26;;;;;;;4.70;3.97;;;;;;;;;;514887;28;1479;-84
2022/04/11 00:57:41;;;;;;;6.45;4.30;;;;;;;;;;515002;28;1666;-85
2022/04/11 00:57:57;;;;;;;6.70;4.27;;;;;;;;;;513823;28;1509;-85
2022/04/11 00:58:12;;;;;;;6.25;4.15;;;;;;;;;;514807;28;1573;-85
2022/04/11 00:58:29;;;;;;;6.47;4.10;;;;;;;;;;515136;28;1479;-86
2022/04/11 00:58:46;;;;;;;7.07;4.18;;;;;;;;;;514119;28;1509;-85
2022/04/11 00:59:02;;;;;;;7.38;4.38;;;;;;;;;;514060;28;1656;-85
2022/04/11 00:59:18;;;;;;;5.95;4.10;;;;;;;;;;515524;28;1463;-86
2022/04/11 00:59:34;;;;;;;5.80;4.05;;;;;;;;;;515738;28;1658;-86
2022/04/11 00:59:50;;;;;;;6.60;4.20;;;;;;;;;;516295;28;1441;-84
2022/04/11 01:00:07;;;;;;;7.00;4.30;;;;;;;;;;516314;28;1467;-85
2022/04/11 01:00:23;;;;;;;5.78;4.40;;;;;;;;;;513656;28;1862;-86
2022/04/11 01:00:39;;;;;;;6.33;4.37;;;;;;;;;;514199;28;1385;-85
2022/04/11 01:00:55;;;;;;;6.00;4.10;;;;;;;;;;513809;28;1436;-85
2022/04/11 01:01:10;;;;;;;6.38;4.32;;;;;;;;;;514831;28;1473;-84
2022/04/11 01:01:25;;;;;;;7.00;4.60;;;;;;;;;;514953;28;1435;-85
2022/04/11 01:01:41;;;;;;;6.13;4.40;;;;;;;;;;513971;28;1582;-85
2022/04/11 01:01:56;;;;;;;6.37;4.37;;;;;;;;;;513701;28;1489;-85
2022/04/11 01:02:12;;;;;;;6.45;4.40;;;;;;;;;;511548;28;1695;-85
2022/04/11 01:02:27;;;;;;;5.90;4.30;;;;;;;;;;511605;28;1481;-85
2022/04/11 01:02:43;;;;;;;6.13;4.28;;;;;;;;;;513254;28;1623;-84
2022/04/11 01:02:58;;;;;;;5.93;4.10;;;;;;;;;;511643;28;1434;-85
2022/04/11 01:03:13;;;;;;;5.70;4.20;;;;;;;;;;513353;28;1558;-84
2022/04/11 01:03:30;;;;;;;6.78;4.38;;;;;;;;;;513771;28;1603;-85
2022/04/11 01:03:46;;;;;;;6.88;4.45;;;;;;;;;;515988;28;1566;-86
2022/04/11 01:04:02;;;;;;;5.67;4.40;;;;;;;;;;517332;28;1476;-85
2022/04/11 01:04:27;;;;;;;5.05;4.35;;;;;;;;;;518072;28;1690;-85
2022/04/11 01:04:42;;;;;;;7.32;4.18;;;;;;;;;;517996;28;1432;-86
2022/04/11 01:04:58;;;;;;;6.20;4.28;;;;;;;;;;515503;28;1404;-85
2022/04/11 01:05:13;;;;;;;6.37;4.30;;;;;;;;;;514728;28;1704;-85
2022/04/11 01:05:29;;;;;;;6.03;4.10;;;;;;;;;;516014;28;1463;-85
2022/04/11 01:05:44;;;;;;;5.33;3.93;;;;;;;;;;513883;28;1988;-85
2022/04/11 01:06:01;;;;;;;5.25;4.00;;;;;;;;;;515560;28;1628;-85
2022/04/11 01:06:16;;;;;;;6.38;4.18;;;;;;;;;;513992;28;1592;-86
2022/04/11 01:06:31;;;;;;;6.15;4.10;;;;;;;;;;513703;28;1598;-85
2022/04/11 01:06:47;;;;;;;5.40;4.00;;;;;;;;;;514530;28;1704;-86
2022/04/11 01:07:02;;;;;;;6.23;3.97;;;;;;;;;;515615;28;1495;-85
2022/04/11 01:07:19;;;;;;;6.10;4.10;;;;;;;;;;517844;28;1743;-85
2022/04/11 01:07:36;;;;;;;5.43;4.07;;;;;;;;;;514842;28;1561;-84
2022/04/11 01:07:51;;;;;;;6.32;4.10;;;;;;;;;;517650;28;1401;-85
2022/04/11 01:08:08;;;;;;;6.00;4.20;;;;;;;;;;513609;28;1621;-85
2022/04/11 01:08:24;;;;;;;5.18;4.18;;;;;;;;;;512884;28;1583;-85
2022/04/11 01:08:39;;;;;;;5.73;4.30;;;;;;;;;;513993;28;1675;-85
2022/04/11 01:08:56;;;;;;;6.10;4.30;;;;;;;;;;515430;28;1515;-85
2022/04/11 01:09:12;;;;;;;6.22;4.30;;;;;;;;;;515217;28;1503;-85
2022/04/11 01:09:27;;;;;;;7.00;4.40;;;;;;;;;;514584;28;1605;-85
2022/04/11 01:09:43;;;;;;;8.13;4.43;;;;;;;;;;514453;28;1557;-85
2022/04/11 01:09:58;;;;;;;8.20;4.50;;;;;;;;;;514300;28;1752;-86
2022/04/11 01:10:14;;;;;;;7.73;4.43;;;;;;;;;;514585;28;1477;-84
2022/04/11 01:10:30;;;;;;;6.95;4.40;;;;;;;;;;514704;28;1458;-86
2022/04/11 01:10:45;;;;;;;6.37;4.30;;;;;;;;;;511888;28;1454;-85
2022/04/11 01:11:02;;;;;;;6.10;4.30;;;;;;;;;;509461;28;1471;-86
2022/04/11 01:11:19;;;;;;;5.85;4.22;;;;;;;;;;507810;29;1541;-85
2022/04/11 01:11:34;;;;;;;6.43;4.20;;;;;;;;;;510218;28;1576;-85
2022/04/11 01:11:50;;;;;;;6.30;4.00;;;;;;;;;;510355;29;1519;-85
2022/04/11 01:12:06;;;;;;;6.95;4.00;;;;;;;;;;511853;28;1485;-85
2022/04/11 01:12:22;;;;;;;6.35;4.07;;;;;;;;;;512103;28;1494;-85
2022/04/11 01:12:38;;;;;;;6.07;4.07;;;;;;;;;;512123;28;1623;-86
2022/04/11 01:12:53;;;;;;;6.00;4.00;;;;;;;;;;512989;28;1430;-86
2022/04/11 01:13:09;;;;;;;5.72;3.97;;;;;;;;;;514181;28;1585;-85
2022/04/11 01:13:24;;;;;;;6.07;4.13;;;;;;;;;;517058;28;1361;-85
2022/04/11 01:13:42;;;;;;;6.50;3.97;;;;;;;;;;517311;28;1601;-85
2022/04/11 01:13:57;;;;;;;6.30;3.85;;;;;;;;;;518526;28;1559;-85
2022/04/11 01:14:12;;;;;;;5.73;3.90;;;;;;;;;;516147;28;1449;-85
2022/04/11 01:14:29;;;;;;;6.13;3.90;;;;;;;;;;515536;28;1484;-85
2022/04/11 01:14:44;;;;;;;7.28;4.20;;;;;;;;;;515578;28;1447;-85
2022/04/11 01:15:00;;;;;;;7.07;4.23;;;;;;;;;;515189;28;1950;-85
2022/04/11 01:15:15;;;;;;;6.40;4.03;;;;;;;;;;515199;28;1449;-85
2022/04/11 01:15:30;;;;;;;6.77;4.20;;;;;;;;;;513930;28;1666;-85
2022/04/11 01:16:03;;;;;;;7.13;4.17;;;;;;;;;;516856;28;1484;-85
2022/04/11 01:16:28;;;;;;;6.68;3.90;;;;;;;;;;518833;28;1538;-85
2022/04/11 01:16:50;;;;;;;5.93;4.10;;;;;;;;;;517339;28;1464;-85
2022/04/11 01:17:06;;;;;;;5.80;4.05;;;;;;;;;;517687;28;1484;-85
2022/04/11 01:17:32;;;;;;;6.07;4.13;;;;;;;;;;517314;28;1484;-85
2022/04/11 01:17:47;;;;;;;4.53;3.70;;;;;;;;;;517589;28;1667;-86
2022/04/11 01:18:03;;;;;;;4.73;3.73;;;;;;;;;;515166;28;1389;-85
2022/04/11 01:18:19;;;;;;;5.10;3.80;;;;;;;;;;513490;28;1617;-86
2022/04/11 01:18:36;;;;;;;6.20;3.97;;;;;;;;;;515959;28;1607;-85
2022/04/11 01:18:51;;;;;;;6.30;4.03;;;;;;;;;;517496;28;1487;-85
2022/04/11 01:19:07;;;;;;;6.30;4.00;;;;;;;;;;517440;28;1507;-85
2022/04/11 01:19:23;;;;;;;7.25;3.95;;;;;;;;;;515809;28;1382;-85
2022/04/11 01:19:38;;;;;;;6.72;3.92;;;;;;;;;;517616;28;1593;-85
2022/04/11 01:19:53;;;;;;;6.65;4.03;;;;;;;;;;517523;28;1470;-85
2022/04/11 01:20:11;;;;;;;7.60;4.20;;;;;;;;;;519333;28;1666;-85
2022/04/11 01:20:26;;;;;;;6.90;4.20;;;;;;;;;;515064;28;1594;-84
2022/04/11 01:20:42;;;;;;;5.80;4.10;;;;;;;;;;515754;28;1614;-85
2022/04/11 01:20:57;;;;;;;6.40;4.10;;;;;;;;;;515099;28;1590;-85
2022/04/11 01:21:13;;;;;;;6.47;4.10;;;;;;;;;;512653;28;1432;-84
2022/04/11 01:21:30;;;;;;;5.93;4.03;;;;;;;;;;513317;28;1690;-85
2022/04/11 01:21:46;;;;;;;6.15;3.95;;;;;;;;;;513836;28;1441;-86
2022/04/11 01:22:02;;;;;;;6.05;4.05;;;;;;;;;;513080;28;1438;-84
2022/04/11 01:22:17;;;;;;;7.03;4.10;;;;;;;;;;512763;28;1413;-85
2022/04/11 01:22:33;;;;;;;7.00;4.00;;;;;;;;;;511409;28;1442;-85
2022/04/11 01:22:49;;;;;;;5.97;4.10;;;;;;;;;;511437;28;1557;-85
2022/04/11 01:23:04;;;;;;;5.60;3.90;;;;;;;;;;511174;28;1426;-85
2022/04/11 01:23:19;;;;;;;5.28;3.72;;;;;;;;;;509114;29;1554;-84
2022/04/11 01:23:35;;;;;;;5.47;4.03;;;;;;;;;;510291;28;1462;-86
2022/04/11 01:23:50;;;;;;;5.53;4.07;;;;;;;;;;508984;29;1557;-85
2022/04/11 01:24:06;;;;;;;5.75;3.90;;;;;;;;;;511777;28;1528;-85
2022/04/11 01:24:22;;;;;;;6.35;3.90;;;;;;;;;;512076;28;1624;-85
2022/04/11 01:24:38;;;;;;;5.87;4.00;;;;;;;;;;511921;28;1501;-85
2022/04/11 01:24:53;;;;;;;5.50;4.10;;;;;;;;;;511776;28;1564;-85
2022/04/11 01:25:13;;;;;;;5.82;4.05;;;;;;;;;;511984;28;1562;-85
2022/04/11 01:25:28;;;;;;;5.70;3.92;;;;;;;;;;512319;28;1418;-85
2022/04/11 01:25:49;;;;;;;4.82;3.72;;;;;;;;;;514430;28;1461;-86
2022/04/11 01:26:06;;;;;;;5.10;3.60;;;;;;;;;;516249;28;1611;-85
2022/04/11 01:26:22;;;;;;;5.32;3.90;;;;;;;;;;515504;28;1481;-85
2022/04/11 01:26:38;;;;;;;5.50;4.05;;;;;;;;;;513012;28;1591;-85
2022/04/11 01:26:54;;;;;;;5.28;4.10;;;;;;;;;;513585;28;1505;-85
2022/04/11 01:27:09;;;;;;;5.97;4.23;;;;;;;;;;513296;28;1670;-85
2022/04/11 01:27:25;;;;;;;6.30;4.17;;;;;;;;;;513782;28;1478;-86
2022/04/11 01:27:41;;;;;;;6.43;4.20;;;;;;;;;;513641;28;1485;-85
2022/04/11 01:27:56;;;;;;;6.07;4.20;;;;;;;;;;513489;28;1512;-85
2022/04/11 01:28:12;;;;;;;4.90;3.90;;;;;;;;;;515523;28;1638;-86
2022/04/11 01:28:27;;;;;;;5.68;4.28;;;;;;;;;;513814;28;1555;-86
2022/04/11 01:28:43;;;;;;;6.17;4.40;;;;;;;;;;513025;28;1610;-85
2022/04/11 01:28:59;;;;;;;5.47;4.20;;;;;;;;;;509283;28;1579;-85
2022/04/11 01:29:16;;;;;;;6.32;4.10;;;;;;;;;;512511;28;1644;-85
2022/04/11 01:29:32;;;;;;;6.28;4.05;;;;;;;;;;513010;28;1751;-85
2022/04/11 01:29:47;;;;;;;5.20;4.20;;;;;;;;;;513995;28;1438;-85
2022/04/11 01:30:04;;;;;;;5.87;4.20;;;;;;;;;;513710;28;1839;-85
2022/04/11 01:30:20;;;;;;;5.97;4.20;;;;;;;;;;514477;28;1587;-85
2022/04/11 01:30:35;;;;;;;6.97;4.38;;;;;;;;;;511402;28;1688;-85
2022/04/11 01:30:53;;;;;;;7.20;4.17;;;;;;;;;;511143;28;1730;-85
2022/04/11 01:31:08;;;;;;;6.30;3.88;;;;;;;;;;509881;28;1466;-84
2022/04/11 01:31:25;;;;;;;6.20;4.00;;;;;;;;;;512379;28;1846;-85
2022/04/11 01:31:40;;;;;;;6.32;4.22;;;;;;;;;;513548;28;1570;-85
2022/04/11 01:31:55;;;;;;;5.70;4.13;;;;;;;;;;512586;28;1524;-85
2022/04/11 01:32:11;;;;;;;5.25;3.92;;;;;;;;;;511852;28;1556;-85
2022/04/11 01:32:28;;;;;;;6.70;4.37;;;;;;;;;;514762;28;1444;-85
2022/04/11 01:32:44;;;;;;;6.50;4.40;;;;;;;;;;515817;28;1683;-85
2022/04/11 01:32:59;;;;;;;5.78;4.00;;;;;;;;;;515494;28;1492;-85
2022/04/11 01:33:21;;;;;;;6.53;4.20;;;;;;;;;;511407;28;1608;-85
2022/04/11 01:33:37;;;;;;;7.15;4.45;;;;;;;;;;511191;28;1580;-85
2022/04/11 01:33:53;;;;;;;6.20;4.27;;;;;;;;;;511666;28;1437;-85
2022/04/11 01:34:08;;;;;;;6.43;4.28;;;;;;;;;;510954;28;1549;-85
2022/04/11 01:34:24;;;;;;;6.57;4.28;;;;;;;;;;511380;28;1517;-85
2022/04/11 01:34:39;;;;;;;6.00;4.20;;;;;;;;;;507226;29;1599;-84
2022/04/11 01:34:55;;;;;;;5.80;4.30;;;;;;;;;;507644;29;1799;-85
2022/04/11 01:35:19;;;;;;;6.07;4.10;;;;;;;;;;510328;28;2318;-85
2022/04/11 01:35:34;;;;;;;6.53;3.88;;;;;;;;;;513556;28;1468;-85
2022/04/11 01:35:50;;;;;;;5.90;4.00;;;;;;;;;;513152;28;1591;-85
2022/04/11 01:36:05;;;;;;;5.93;4.10;;;;;;;;;;515675;28;1520;-85
2022/04/11 01:36:21;;;;;;;5.43;4.00;;;;;;;;;;515260;28;1457;-85
2022/04/11 01:36:36;;;;;;;5.33;4.27;;;;;;;;;;517175;28;1757;-84
2022/04/11 01:36:52;;;;;;;5.20;4.07;;;;;;;;;;517343;28;1502;-85
2022/04/11 01:37:07;;;;;;;5.30;4.10;;;;;;;;;;513517;28;1469;-85
2022/04/11 01:37:23;;;;;;;6.50;4.27;;;;;;;;;;511531;28;1498;-85
2022/04/11 01:37:38;;;;;;;6.85;4.35;;;;;;;;;;511398;28;1564;-85
2022/04/11 01:37:54;;;;;;;6.57;4.40;;;;;;;;;;512895;28;1405;-85
2022/04/11 01:38:09;;;;;;;7.23;4.33;;;;;;;;;;511481;28;1759;-85
2022/04/11 01:38:25;;;;;;;6.63;4.15;;;;;;;;;;513219;28;1457;-85
2022/04/11 01:38:40;;;;;;;6.37;4.27;;;;;;;;;;513391;28;1598;-85
2022/04/11 01:38:55;;;;;;;6.63;4.30;;;;;;;;;;513613;28;1476;-85
2022/04/11 01:39:11;;;;;;;6.43;4.20;;;;;;;;;;513279;28;1613;-85
2022/04/11 01:39:26;;;;;;;6.13;4.27;;;;;;;;;;513892;28;1402;-85